createdAt,value
2023-04-02T00:01:40.154Z,82.41
2023-04-02T00:04:14.210Z,82.52
2023-04-02T00:06:50.137Z,82.78
2023-04-02T00:09:22.105Z,82.53
2023-04-02T00:11:49.678Z,82.38
2023-04-02T00:14:31.782Z,83.10
2023-04-02T00:16:58.906Z,83.42
2023-04-02T00:19:37.592Z,83.30
2023-04-02T00:22:06.375Z,84.40
2023-04-02T00:24:32.850Z,84.23
2023-04-02T00:26:59.370Z,83.86
2023-04-02T00:29:25.848Z,84.68
2023-04-02T00:31:53.014Z,84.58
2023-04-02T00:34:31.428Z,83.87
2023-04-02T00:36:57.887Z,84.49
2023-04-02T00:39:29.110Z,85.08
2023-04-02T00:42:05.755Z,84.79
2023-04-02T00:44:44.739Z,85.15
2023-04-02T00:47:21.344Z,84.76
2023-04-02T00:49:48.788Z,85.12
2023-04-02T00:52:17.364Z,84.84
2023-04-02T00:54:48.176Z,84.67
2023-04-02T00:57:17.846Z,84.91
2023-04-02T01:00:19.820Z,85.16
2023-04-02T01:03:13.011Z,85.42
2023-04-02T01:05:39.826Z,85.29
2023-04-02T01:08:12.349Z,85.17
2023-04-02T01:10:47.937Z,85.96
2023-04-02T01:13:25.512Z,85.99
2023-04-02T01:16:16.038Z,85.32
2023-04-02T01:18:58.211Z,85.45
2023-04-02T01:21:43.955Z,85.68
2023-04-02T01:24:13.689Z,85.29
2023-04-02T01:26:44.586Z,85.51
2023-04-02T01:29:19.475Z,84.92
2023-04-02T01:31:46.199Z,85.68
2023-04-02T01:34:15.386Z,85.62
2023-04-02T01:36:56.987Z,86.28
2023-04-02T01:39:42.635Z,85.96
2023-04-02T01:42:18.349Z,84.71
2023-04-02T01:44:51.382Z,86.07
2023-04-02T01:47:22.557Z,85.46
2023-04-02T01:49:49.046Z,86.08
2023-04-02T01:52:25.572Z,85.31
2023-04-02T01:54:52.393Z,85.21
2023-04-02T01:57:18.954Z,85.46
2023-04-02T01:59:45.969Z,85.51
2023-04-02T02:02:13.364Z,84.92
2023-04-02T02:04:39.920Z,85.58
2023-04-02T02:07:10.332Z,85.18
2023-04-02T02:09:37.100Z,85.92
2023-04-02T02:12:04.277Z,85.59
2023-04-02T02:14:31.083Z,85.74
2023-04-02T02:17:02.111Z,85.92
2023-04-02T02:19:46.954Z,85.83
2023-04-02T02:22:29.122Z,85.86
2023-04-02T02:24:56.647Z,85.99
2023-04-02T02:27:23.011Z,86.11
2023-04-02T02:29:51.506Z,85.15
2023-04-02T02:32:18.253Z,85.89
2023-04-02T02:34:48.323Z,85.65
2023-04-02T02:37:17.649Z,85.63
2023-04-02T02:39:44.951Z,85.21
2023-04-02T02:42:37.250Z,85.62
2023-04-02T02:45:06.297Z,85.51
2023-04-02T02:47:34.654Z,84.86
2023-04-02T02:50:03.590Z,85.15
2023-04-02T02:52:35.771Z,84.64
2023-04-02T02:55:05.218Z,84.77
2023-04-02T02:57:39.820Z,84.92
2023-04-02T03:00:09.580Z,84.97
2023-04-02T03:02:36.869Z,84.34
2023-04-02T03:05:04.897Z,84.35
2023-04-02T03:07:31.352Z,84.82
2023-04-02T03:10:00.555Z,85.04
2023-04-02T03:12:51.421Z,85.43
2023-04-02T03:16:02.602Z,86.12
2023-04-02T03:18:31.638Z,85.81
2023-04-02T03:21:01.327Z,85.41
2023-04-02T03:23:35.693Z,86.03
2023-04-02T03:26:12.260Z,85.61
2023-04-02T03:28:44.049Z,85.63
2023-04-02T03:31:15.862Z,86.59
2023-04-02T03:33:44.513Z,85.96
2023-04-02T03:36:22.686Z,87.15
2023-04-02T03:38:57.453Z,86.48
2023-04-02T03:41:30.851Z,86.73
2023-04-02T03:43:59.229Z,86.48
2023-04-02T03:46:42.364Z,86.17
2023-04-02T03:49:17.044Z,86.97
2023-04-02T03:51:57.911Z,87.02
2023-04-02T03:54:24.388Z,86.66
2023-04-02T03:56:50.856Z,87.53
2023-04-02T03:59:23.269Z,87.81
2023-04-02T04:01:56.855Z,88.32
2023-04-02T04:04:23.395Z,88.38
2023-04-02T04:06:50.610Z,88.61
2023-04-02T04:09:35.434Z,88.28
2023-04-02T04:12:29.813Z,88.59
2023-04-02T04:15:07.250Z,88.95
2023-04-02T04:17:42.451Z,89.53
2023-04-02T04:20:21.920Z,89.44
2023-04-02T04:22:49.883Z,89.62
2023-04-02T04:25:29.441Z,89.06
2023-04-02T04:28:05.481Z,88.72
2023-04-02T04:31:00.110Z,90.03
2023-04-02T04:33:34.500Z,90.00
2023-04-02T04:36:01.965Z,89.78
2023-04-02T04:38:39.451Z,89.30
2023-04-02T04:41:14.510Z,89.91
2023-04-02T04:43:52.742Z,90.08
2023-04-02T04:46:31.496Z,91.18
2023-04-02T04:49:00.181Z,92.15
2023-04-02T04:51:35.461Z,92.48
2023-04-02T04:54:01.949Z,93.09
2023-04-02T04:56:29.237Z,93.47
2023-04-02T04:59:11.702Z,93.93
2023-04-02T05:01:42.657Z,94.19
2023-04-02T05:04:16.903Z,94.43
2023-04-02T05:06:45.531Z,94.56
2023-04-02T05:09:28.443Z,94.68
2023-04-02T05:12:16.124Z,94.72
2023-04-02T05:14:48.512Z,94.06
2023-04-02T05:17:14.863Z,94.40
2023-04-02T05:19:51.796Z,94.17
2023-04-02T05:22:30.047Z,94.31
2023-04-02T05:25:20.844Z,94.14
2023-04-02T05:27:52.433Z,94.43
2023-04-02T05:30:24.797Z,94.09
2023-04-02T05:33:00.606Z,94.94
2023-04-02T05:35:32.094Z,94.23
2023-04-02T05:37:59.160Z,94.10
2023-04-02T05:40:40.857Z,94.40
2023-04-02T05:43:10.928Z,94.27
2023-04-02T05:45:38.989Z,93.93
2023-04-02T05:48:30.833Z,94.56
2023-04-02T05:50:58.771Z,94.62
2023-04-02T05:53:30.548Z,94.30
2023-04-02T05:56:04.924Z,93.53
2023-04-02T05:58:37.518Z,93.90
2023-04-02T06:01:12.748Z,93.72
2023-04-02T06:04:02.362Z,94.01
2023-04-02T06:06:44.960Z,93.80
2023-04-02T06:09:49.485Z,94.30
2023-04-02T06:12:27.703Z,94.59
2023-04-02T06:14:54.192Z,94.11
2023-04-02T06:17:20.856Z,94.09
2023-04-02T06:19:47.906Z,94.13
2023-04-02T06:22:35.442Z,93.53
2023-04-02T06:25:05.723Z,93.39
2023-04-02T06:27:32.247Z,93.67
2023-04-02T06:30:01.079Z,93.57
2023-04-02T06:32:27.595Z,93.48
2023-04-02T06:34:54.095Z,93.19
2023-04-02T06:37:38.616Z,92.73
2023-04-02T06:40:05.837Z,93.16
2023-04-02T06:42:37.252Z,92.33
2023-04-02T06:45:04.167Z,91.84
2023-04-02T06:47:38.632Z,91.86
2023-04-02T06:50:07.123Z,92.41
2023-04-02T06:53:00.578Z,90.76
2023-04-02T06:55:49.125Z,91.19
2023-04-02T06:58:16.480Z,90.77
2023-04-02T07:00:44.315Z,89.87
2023-04-02T07:03:21.289Z,90.63
2023-04-02T07:05:47.826Z,89.53
2023-04-02T07:08:14.390Z,89.94
2023-04-02T07:10:41.056Z,88.73
2023-04-02T07:13:08.275Z,89.77
2023-04-02T07:15:34.913Z,89.58
2023-04-02T07:18:01.875Z,89.49
2023-04-02T07:20:30.415Z,88.67
2023-04-02T07:22:57.163Z,88.52
2023-04-02T07:25:24.412Z,88.00
2023-04-02T07:27:52.046Z,87.55
2023-04-02T07:30:18.666Z,87.67
2023-04-02T07:32:45.490Z,88.42
2023-04-02T07:35:12.047Z,87.61
2023-04-02T07:37:38.643Z,87.65
2023-04-02T07:40:09.886Z,88.45
2023-04-02T07:42:36.364Z,87.78
2023-04-02T07:45:05.767Z,87.51
2023-04-02T07:47:32.737Z,87.06
2023-04-02T07:49:59.219Z,87.47
2023-04-02T07:52:25.717Z,87.36
2023-04-02T07:54:52.286Z,87.37
2023-04-02T07:57:18.924Z,86.66
2023-04-02T07:59:47.268Z,87.27
2023-04-02T08:02:21.119Z,87.20
2023-04-02T08:04:51.282Z,86.05
2023-04-02T08:07:19.015Z,87.07
2023-04-02T08:09:45.523Z,86.36
2023-04-02T08:12:14.974Z,86.24
2023-04-02T08:14:41.481Z,87.50
2023-04-02T08:17:07.967Z,86.77
2023-04-02T08:19:44.330Z,86.00
2023-04-02T08:22:18.421Z,85.93
2023-04-02T08:24:44.890Z,87.38
2023-04-02T08:27:13.810Z,88.06
2023-04-02T08:29:40.306Z,87.91
2023-04-02T08:32:07.589Z,87.35
2023-04-02T08:34:34.061Z,88.08
2023-04-02T08:37:00.673Z,88.04
2023-04-02T08:39:29.364Z,87.99
2023-04-02T08:41:58.397Z,87.40
2023-04-02T08:44:37.396Z,88.20
2023-04-02T08:47:05.005Z,87.82
2023-04-02T08:49:49.489Z,87.75
2023-04-02T08:52:27.228Z,87.60
2023-04-02T08:54:56.158Z,87.44
2023-04-02T08:57:25.589Z,88.48
2023-04-02T08:59:58.229Z,88.07
2023-04-02T09:02:29.995Z,88.47
2023-04-02T09:04:57.896Z,88.81
2023-04-02T09:07:24.406Z,87.91
2023-04-02T09:09:50.999Z,88.00
2023-04-02T09:12:26.120Z,87.29
2023-04-02T09:15:11.124Z,86.36
2023-04-02T09:17:50.661Z,86.71
2023-04-02T09:20:25.909Z,87.95
2023-04-02T09:22:53.076Z,87.48
2023-04-02T09:25:25.463Z,86.83
2023-04-02T09:27:53.215Z,88.55
2023-04-02T09:30:29.687Z,86.78
2023-04-02T09:32:58.032Z,87.92
2023-04-02T09:35:27.080Z,88.18
2023-04-02T09:38:33.011Z,87.78
2023-04-02T09:41:19.390Z,88.54
2023-04-02T09:43:45.890Z,87.79
2023-04-02T09:46:23.278Z,88.59
2023-04-02T09:48:53.665Z,87.41
2023-04-02T09:51:22.024Z,88.06
2023-04-02T09:53:50.031Z,86.70
2023-04-02T09:56:23.564Z,87.18
2023-04-02T09:59:03.456Z,87.93
2023-04-02T10:01:32.294Z,87.50
2023-04-02T10:03:59.944Z,86.88
2023-04-02T10:06:28.252Z,86.62
2023-04-02T10:08:54.781Z,87.95
2023-04-02T10:11:43.638Z,87.68
2023-04-02T10:14:23.400Z,87.41
2023-04-02T10:16:52.383Z,87.50
2023-04-02T10:19:26.538Z,89.46
2023-04-02T10:21:54.389Z,89.45
2023-04-02T10:24:21.083Z,87.93
2023-04-02T10:26:59.698Z,87.74
2023-04-02T10:29:35.721Z,88.20
2023-04-02T10:32:11.246Z,88.96
2023-04-02T10:34:52.795Z,87.94
2023-04-02T10:37:41.424Z,88.55
2023-04-02T10:40:23.768Z,88.56
2023-04-02T10:43:03.317Z,89.53
2023-04-02T10:45:35.494Z,89.52
2023-04-02T10:48:30.606Z,90.33
2023-04-02T10:51:16.669Z,90.51
2023-04-02T10:53:58.531Z,90.72
2023-04-02T10:56:24.981Z,90.70
2023-04-02T10:59:03.968Z,89.56
2023-04-02T11:01:30.469Z,90.43
2023-04-02T11:04:00.448Z,90.50
2023-04-02T11:06:30.195Z,91.37
2023-04-02T11:09:04.971Z,91.33
2023-04-02T11:11:36.581Z,90.38
2023-04-02T11:14:21.992Z,89.75
2023-04-02T11:16:49.021Z,90.64
2023-04-02T11:19:15.807Z,91.25
2023-04-02T11:22:01.301Z,89.76
2023-04-02T11:24:30.008Z,89.79
2023-04-02T11:27:11.407Z,89.64
2023-04-02T11:30:07.606Z,89.64
2023-04-02T11:32:45.234Z,89.35
2023-04-02T11:35:31.714Z,88.45
2023-04-02T11:38:04.198Z,88.54
2023-04-02T11:40:44.599Z,90.74
2023-04-02T11:43:33.089Z,89.38
2023-04-02T11:46:18.569Z,88.81
2023-04-02T11:48:45.290Z,88.99
2023-04-02T11:51:22.260Z,87.89
2023-04-02T11:53:53.830Z,85.59
2023-04-02T11:56:32.140Z,85.96
2023-04-02T11:59:05.126Z,84.31
2023-04-02T12:02:06.031Z,85.33
2023-04-02T12:05:04.288Z,82.42
2023-04-02T12:07:53.305Z,82.87
2023-04-02T12:10:32.429Z,83.16
2023-04-02T12:12:59.033Z,82.43
2023-04-02T12:15:48.811Z,82.63
2023-04-02T12:18:21.641Z,80.55
2023-04-02T12:20:51.968Z,79.30
2023-04-02T12:23:20.219Z,81.40
2023-04-02T12:25:58.688Z,80.44
2023-04-02T12:28:28.646Z,79.20
2023-04-02T12:31:10.139Z,78.46
2023-04-02T12:33:37.604Z,76.84
2023-04-02T12:36:09.917Z,77.20
2023-04-02T12:38:55.397Z,76.83
2023-04-02T12:41:24.413Z,77.79
2023-04-02T12:44:01.669Z,78.07
2023-04-02T12:46:28.773Z,77.89
2023-04-02T12:48:58.126Z,79.70
2023-04-02T12:51:25.800Z,79.93
2023-04-02T12:53:53.828Z,80.56
2023-04-02T12:56:24.169Z,79.74
2023-04-02T12:59:30.691Z,80.01
2023-04-02T13:02:01.488Z,76.90
2023-04-02T13:04:28.069Z,77.24
2023-04-02T13:06:58.388Z,76.40
2023-04-02T13:09:48.205Z,76.25
2023-04-02T13:12:37.372Z,76.79
2023-04-02T13:15:08.014Z,77.32
2023-04-02T13:17:45.617Z,78.76
2023-04-02T13:20:41.876Z,77.60
2023-04-02T13:23:27.237Z,77.84
2023-04-02T13:25:53.762Z,76.07
2023-04-02T13:28:20.461Z,74.77
2023-04-02T13:30:47.074Z,74.56
2023-04-02T13:33:14.262Z,76.68
2023-04-02T13:35:41.094Z,77.90
2023-04-02T13:38:08.605Z,77.72
2023-04-02T13:40:36.111Z,78.87
2023-04-02T13:43:03.673Z,77.70
2023-04-02T13:45:35.004Z,79.15
2023-04-02T13:48:01.924Z,78.19
2023-04-02T13:50:29.876Z,77.91
2023-04-02T13:52:58.116Z,80.32
2023-04-02T13:55:26.392Z,80.15
2023-04-02T13:57:52.939Z,80.41
2023-04-02T14:00:20.948Z,79.58
2023-04-02T14:02:51.039Z,81.31
2023-04-02T14:05:30.604Z,81.35
2023-04-02T14:08:10.694Z,80.38
2023-04-02T14:11:17.080Z,82.44
2023-04-02T14:13:56.745Z,83.12
2023-04-02T14:16:42.341Z,82.17
2023-04-02T14:19:33.318Z,83.44
2023-04-02T14:22:18.430Z,83.47
2023-04-02T14:24:47.509Z,84.90
2023-04-02T14:27:22.989Z,85.56
2023-04-02T14:29:52.227Z,84.74
2023-04-02T14:32:24.605Z,84.71
2023-04-02T14:35:15.321Z,84.54
2023-04-02T14:38:11.495Z,84.52
2023-04-02T14:40:59.633Z,83.18
2023-04-02T14:43:44.235Z,83.46
2023-04-02T14:46:10.849Z,82.41
2023-04-02T14:48:46.198Z,82.83
2023-04-02T14:51:16.110Z,82.28
2023-04-02T14:54:16.074Z,82.85
2023-04-02T14:56:49.836Z,81.20
2023-04-02T14:59:31.515Z,80.39
2023-04-02T15:02:03.995Z,79.90
2023-04-02T15:04:37.335Z,77.31
2023-04-02T15:07:07.716Z,79.60
2023-04-02T15:09:38.079Z,76.41
2023-04-02T15:12:09.916Z,77.12
2023-04-02T15:14:45.647Z,77.03
2023-04-02T15:17:12.260Z,76.39
2023-04-02T15:19:38.766Z,76.96
2023-04-02T15:22:26.484Z,78.47
2023-04-02T15:25:07.915Z,76.44
2023-04-02T15:27:52.046Z,77.50
2023-04-02T15:30:30.592Z,76.38
2023-04-02T15:32:59.185Z,75.88
2023-04-02T15:35:54.538Z,77.67
2023-04-02T15:38:22.746Z,76.48
2023-04-02T15:41:14.085Z,76.68
2023-04-02T15:43:54.693Z,76.51
2023-04-02T15:46:57.001Z,74.17
2023-04-02T15:49:51.540Z,71.13
2023-04-02T15:52:42.917Z,71.76
2023-04-02T15:55:27.970Z,71.77
2023-04-02T15:58:24.801Z,72.32
2023-04-02T16:01:08.421Z,72.45
2023-04-02T16:03:44.135Z,71.40
2023-04-02T16:06:25.551Z,70.29
2023-04-02T16:09:13.900Z,71.03
2023-04-02T16:11:40.537Z,69.63
2023-04-02T16:14:25.986Z,70.26
2023-04-02T16:16:52.769Z,69.33
2023-04-02T16:19:33.689Z,68.92
2023-04-02T16:22:21.629Z,69.76
2023-04-02T16:24:49.966Z,70.02
2023-04-02T16:27:38.531Z,69.80
2023-04-02T16:30:34.576Z,70.01
2023-04-02T16:33:10.045Z,70.39
2023-04-02T16:35:54.134Z,68.46
2023-04-02T16:38:20.740Z,69.85
2023-04-02T16:41:07.733Z,69.37
2023-04-02T16:43:58.405Z,68.83
2023-04-02T16:46:39.886Z,69.20
2023-04-02T16:49:20.224Z,68.88
2023-04-02T16:51:49.448Z,68.64
2023-04-02T16:54:19.216Z,69.89
2023-04-02T16:57:07.086Z,70.76
2023-04-02T17:00:05.999Z,67.54
2023-04-02T17:02:54.092Z,67.46
2023-04-02T17:05:25.754Z,66.99
2023-04-02T17:08:01.826Z,66.04
2023-04-02T17:10:30.728Z,66.02
2023-04-02T17:13:03.639Z,65.58
2023-04-02T17:15:38.001Z,66.81
2023-04-02T17:18:19.811Z,66.83
2023-04-02T17:20:47.283Z,67.30
2023-04-02T17:23:14.128Z,69.53
2023-04-02T17:25:56.381Z,67.90
2023-04-02T17:28:26.154Z,68.28
2023-04-02T17:30:55.748Z,67.95
2023-04-02T17:33:25.088Z,68.86
2023-04-02T17:35:59.763Z,69.70
2023-04-02T17:38:48.915Z,69.87
2023-04-02T17:41:40.821Z,69.91
2023-04-02T17:44:16.507Z,69.54
2023-04-02T17:46:51.962Z,70.09
2023-04-02T17:49:45.817Z,69.65
2023-04-02T17:52:36.399Z,70.71
2023-04-02T17:55:21.052Z,69.15
2023-04-02T17:57:51.026Z,69.96
2023-04-02T18:00:20.647Z,70.03
2023-04-02T18:02:57.934Z,70.23
2023-04-02T18:05:38.785Z,69.91
2023-04-02T18:08:08.595Z,70.55
2023-04-02T18:10:54.314Z,70.61
2023-04-02T18:13:49.798Z,70.22
2023-04-02T18:16:25.827Z,69.92
2023-04-02T18:19:24.004Z,70.33
2023-04-02T18:22:12.536Z,70.03
2023-04-02T18:25:25.015Z,70.02
2023-04-02T18:27:58.264Z,70.40
2023-04-02T18:30:54.665Z,70.64
2023-04-02T18:33:46.049Z,70.42
2023-04-02T18:36:37.346Z,70.77
2023-04-02T18:39:10.333Z,71.14
2023-04-02T18:41:52.524Z,71.71
2023-04-02T18:44:46.512Z,71.58
2023-04-02T18:47:36.828Z,71.88
2023-04-02T18:50:16.482Z,71.75
2023-04-02T18:52:43.084Z,72.47
2023-04-02T18:55:17.618Z,72.28
2023-04-02T18:57:45.268Z,73.03
2023-04-02T19:00:30.792Z,72.72
2023-04-02T19:03:02.406Z,72.92
2023-04-02T19:05:35.189Z,72.47
2023-04-02T19:08:24.849Z,72.56
2023-04-02T19:10:53.703Z,72.49
2023-04-02T19:13:20.365Z,71.94
2023-04-02T19:16:01.954Z,71.45
2023-04-02T19:18:36.595Z,70.94
2023-04-02T19:21:38.364Z,69.02
2023-04-02T19:24:17.328Z,68.95
2023-04-02T19:26:47.637Z,69.84
2023-04-02T19:29:21.278Z,70.14
2023-04-02T19:31:52.291Z,69.89
2023-04-02T19:34:39.032Z,69.87
2023-04-02T19:37:16.832Z,69.90
2023-04-02T19:39:55.393Z,69.72
2023-04-02T19:42:49.333Z,70.03
2023-04-02T19:45:28.701Z,69.31
2023-04-02T19:47:56.106Z,69.53
2023-04-02T19:50:22.738Z,69.86
2023-04-02T19:52:49.232Z,69.91
2023-04-02T19:55:15.850Z,69.43
2023-04-02T19:57:42.381Z,69.53
2023-04-02T20:00:12.113Z,69.55
2023-04-02T20:02:38.752Z,69.74
2023-04-02T20:05:05.890Z,70.01
2023-04-02T20:07:32.327Z,70.06
2023-04-02T20:09:58.855Z,70.41
2023-04-02T20:12:25.534Z,69.82
2023-04-02T20:14:52.002Z,70.23
2023-04-02T20:17:18.459Z,70.69
2023-04-02T20:19:44.903Z,69.64
2023-04-02T20:22:11.361Z,69.85
2023-04-02T20:24:37.877Z,69.26
2023-04-02T20:27:04.360Z,69.78
2023-04-02T20:29:32.152Z,69.47
2023-04-02T20:31:58.784Z,70.25
2023-04-02T20:34:25.915Z,70.08
2023-04-02T20:36:53.583Z,69.81
2023-04-02T20:39:21.473Z,69.94
2023-04-02T20:41:48.158Z,70.15
2023-04-02T20:44:14.646Z,70.54
2023-04-02T20:46:41.658Z,70.62
2023-04-02T20:49:08.180Z,69.57
2023-04-02T20:51:34.647Z,69.18
2023-04-02T20:54:01.354Z,69.68
2023-04-02T20:56:27.922Z,69.38
2023-04-02T20:58:54.450Z,69.85
2023-04-02T21:01:25.986Z,69.33
2023-04-02T21:03:59.703Z,69.10
2023-04-02T21:06:27.796Z,69.18
2023-04-02T21:08:54.269Z,68.67
2023-04-02T21:11:22.368Z,68.39
2023-04-02T21:13:49.520Z,67.19
2023-04-02T21:16:17.681Z,67.96
2023-04-02T21:18:44.241Z,68.66
2023-04-02T21:21:13.551Z,67.45
2023-04-02T21:23:40.471Z,68.01
2023-04-02T21:26:07.210Z,66.78
2023-04-02T21:28:34.391Z,67.95
2023-04-02T21:31:21.711Z,68.83
2023-04-02T21:33:52.903Z,68.20
2023-04-02T21:36:25.562Z,67.59
2023-04-02T21:38:56.505Z,68.32
2023-04-02T21:41:30.273Z,67.79
2023-04-02T21:43:57.472Z,67.71
2023-04-02T21:46:26.042Z,66.95
2023-04-02T21:48:53.335Z,66.85
2023-04-02T21:51:22.193Z,66.87
2023-04-02T21:53:49.188Z,66.16
2023-04-02T21:56:16.635Z,66.25
2023-04-02T21:58:43.721Z,65.78
2023-04-02T22:01:16.841Z,65.59
2023-04-02T22:03:47.168Z,66.00
2023-04-02T22:06:15.820Z,65.81
2023-04-02T22:08:42.980Z,65.91
2023-04-02T22:11:33.391Z,65.66
2023-04-02T22:13:59.969Z,66.29
2023-04-02T22:16:27.837Z,65.87
2023-04-02T22:18:55.711Z,66.42
2023-04-02T22:21:22.376Z,66.12
2023-04-02T22:23:48.910Z,66.41
2023-04-02T22:26:16.264Z,66.96
2023-04-02T22:28:42.905Z,67.32
2023-04-02T22:31:12.585Z,67.03
2023-04-02T22:33:39.158Z,67.64
2023-04-02T22:36:06.062Z,67.58
2023-04-02T22:38:32.737Z,67.54
2023-04-02T22:41:07.616Z,68.27
2023-04-02T22:43:34.560Z,67.75
2023-04-02T22:46:01.326Z,68.22
2023-04-02T22:48:27.834Z,68.48
2023-04-02T22:50:54.365Z,69.29
2023-04-02T22:53:21.075Z,68.70
2023-04-02T22:55:47.667Z,69.06
2023-04-02T22:58:14.186Z,69.19
2023-04-02T23:00:41.073Z,68.88
2023-04-02T23:03:07.550Z,69.42
2023-04-02T23:05:34.004Z,69.08
2023-04-02T23:08:00.501Z,69.03
2023-04-02T23:10:30.559Z,69.02
2023-04-02T23:12:57.489Z,68.66
2023-04-02T23:15:23.958Z,69.16
2023-04-02T23:17:50.498Z,69.12
2023-04-02T23:20:17.114Z,68.85
2023-04-02T23:22:43.627Z,68.55
2023-04-02T23:25:10.200Z,69.13
2023-04-02T23:27:36.845Z,69.43
2023-04-02T23:30:03.951Z,69.46
2023-04-02T23:32:30.499Z,69.12
2023-04-02T23:34:56.986Z,69.74
2023-04-02T23:37:23.458Z,69.60
2023-04-02T23:39:49.978Z,69.43
2023-04-02T23:42:17.442Z,69.34
2023-04-02T23:44:43.906Z,69.87
2023-04-02T23:47:10.733Z,69.90
2023-04-02T23:49:37.230Z,70.29
2023-04-02T23:52:03.748Z,70.18
2023-04-02T23:54:30.310Z,70.42
2023-04-02T23:56:56.831Z,69.81
2023-04-02T23:59:23.343Z,70.49
